sensor_id;sensor_type;location;lat;lon;timestamp;pressure;altitude;pressure_sealevel;temperature;humidity
13800;BME280;6971;50.028;9.258;2023-01-05T00:01:19;99551.97;;;8.85;100.00
13800;BME280;6971;50.028;9.258;2023-01-05T00:06:21;99549.88;;;8.72;100.00
13800;BME280;6971;50.028;9.258;2023-01-05T00:11:23;99534.13;;;8.72;100.00
13800;BME280;6971;50.028;9.258;2023-01-05T00:16:43;99533.19;;;8.73;100.00
13800;BME280;6971;50.028;9.258;2023-01-05T00:22:28;99527.16;;;8.71;100.00
13800;BME280;6971;50.028;9.258;2023-01-05T00:27:32;99513.50;;;8.63;100.00
13800;BME280;6971;50.028;9.258;2023-01-05T00:32:33;99519.47;;;8.67;100.00
13800;BME280;6971;50.028;9.258;2023-01-05T00:37:35;99510.94;;;8.61;100.00
13800;BME280;6971;50.028;9.258;2023-01-05T00:42:38;99504.84;;;8.61;100.00
13800;BME280;6971;50.028;9.258;2023-01-05T00:47:39;99494.19;;;8.64;100.00
13800;BME280;6971;50.028;9.258;2023-01-05T00:52:40;99503.44;;;8.73;100.00
13800;BME280;6971;50.028;9.258;2023-01-05T00:57:41;99510.34;;;8.75;100.00
13800;BME280;6971;50.028;9.258;2023-01-05T01:02:43;99501.66;;;8.73;100.00
13800;BME280;6971;50.028;9.258;2023-01-05T01:07:44;99495.50;;;8.74;100.00
13800;BME280;6971;50.028;9.258;2023-01-05T01:12:44;99499.03;;;8.73;100.00
13800;BME280;6971;50.028;9.258;2023-01-05T01:17:55;99512.97;;;8.75;100.00
13800;BME280;6971;50.028;9.258;2023-01-05T01:22:56;99516.66;;;8.71;100.00
13800;BME280;6971;50.028;9.258;2023-01-05T01:27:59;99518.28;;;8.74;100.00
13800;BME280;6971;50.028;9.258;2023-01-05T01:33:00;99519.91;;;8.77;100.00
13800;BME280;6971;50.028;9.258;2023-01-05T01:38:01;99524.47;;;8.73;100.00
13800;BME280;6971;50.028;9.258;2023-01-05T01:43:01;99540.88;;;8.78;100.00
13800;BME280;6971;50.028;9.258;2023-01-05T01:48:02;99529.50;;;8.78;100.00
13800;BME280;6971;50.028;9.258;2023-01-05T01:53:11;99542.50;;;8.81;100.00
13800;BME280;6971;50.028;9.258;2023-01-05T01:58:16;99539.94;;;8.79;100.00
13800;BME280;6971;50.028;9.258;2023-01-05T02:03:18;99542.22;;;8.87;100.00
13800;BME280;6971;50.028;9.258;2023-01-05T02:08:19;99536.00;;;8.90;100.00
13800;BME280;6971;50.028;9.258;2023-01-05T02:19:12;99531.50;;;8.92;100.00
13800;BME280;6971;50.028;9.258;2023-01-05T02:30:21;99531.44;;;8.93;100.00
13800;BME280;6971;50.028;9.258;2023-01-05T02:35:48;99544.59;;;8.93;100.00
13800;BME280;6971;50.028;9.258;2023-01-05T02:40:59;99533.84;;;8.98;100.00
13800;BME280;6971;50.028;9.258;2023-01-05T02:46:02;99539.97;;;8.98;100.00
13800;BME280;6971;50.028;9.258;2023-01-05T02:51:07;99537.16;;;9.03;100.00
13800;BME280;6971;50.028;9.258;2023-01-05T02:56:27;99522.22;;;9.04;100.00
13800;BME280;6971;50.028;9.258;2023-01-05T03:01:36;99515.25;;;9.03;100.00
13800;BME280;6971;50.028;9.258;2023-01-05T03:06:50;99518.66;;;9.05;100.00
13800;BME280;6971;50.028;9.258;2023-01-05T03:17:46;99530.22;;;9.00;100.00
13800;BME280;6971;50.028;9.258;2023-01-05T03:22:48;99525.69;;;9.04;100.00
13800;BME280;6971;50.028;9.258;2023-01-05T03:28:17;99532.72;;;9.04;100.00
13800;BME280;6971;50.028;9.258;2023-01-05T03:39:44;99549.44;;;9.03;100.00
13800;BME280;6971;50.028;9.258;2023-01-05T03:44:45;99556.31;;;9.05;100.00
13800;BME280;6971;50.028;9.258;2023-01-05T03:49:49;99547.38;;;9.09;100.00
13800;BME280;6971;50.028;9.258;2023-01-05T03:54:50;99548.44;;;9.05;100.00
13800;BME280;6971;50.028;9.258;2023-01-05T03:59:51;99552.75;;;9.06;100.00
13800;BME280;6971;50.028;9.258;2023-01-05T04:04:52;99565.84;;;9.08;100.00
13800;BME280;6971;50.028;9.258;2023-01-05T04:09:52;99568.41;;;9.09;100.00
13800;BME280;6971;50.028;9.258;2023-01-05T04:14:54;99569.41;;;9.07;100.00
13800;BME280;6971;50.028;9.258;2023-01-05T04:19:54;99579.00;;;9.08;100.00
13800;BME280;6971;50.028;9.258;2023-01-05T04:24:55;99564.28;;;9.04;100.00
13800;BME280;6971;50.028;9.258;2023-01-05T04:29:55;99576.84;;;8.97;100.00
13800;BME280;6971;50.028;9.258;2023-01-05T04:34:56;99568.44;;;8.88;100.00
13800;BME280;6971;50.028;9.258;2023-01-05T04:40:12;99586.41;;;8.79;100.00
13800;BME280;6971;50.028;9.258;2023-01-05T04:45:13;99591.09;;;8.72;100.00
13800;BME280;6971;50.028;9.258;2023-01-05T04:50:14;99599.81;;;8.72;100.00
13800;BME280;6971;50.028;9.258;2023-01-05T04:55:14;99600.78;;;8.70;100.00
13800;BME280;6971;50.028;9.258;2023-01-05T05:00:16;99595.00;;;8.61;100.00
13800;BME280;6971;50.028;9.258;2023-01-05T05:05:17;99609.06;;;8.60;100.00
13800;BME280;6971;50.028;9.258;2023-01-05T05:10:18;99613.47;;;8.60;100.00
13800;BME280;6971;50.028;9.258;2023-01-05T05:15:19;99618.13;;;8.53;100.00
13800;BME280;6971;50.028;9.258;2023-01-05T05:20:28;99624.34;;;8.51;100.00
13800;BME280;6971;50.028;9.258;2023-01-05T05:25:29;99624.34;;;8.51;100.00
13800;BME280;6971;50.028;9.258;2023-01-05T05:30:30;99636.09;;;8.42;100.00
13800;BME280;6971;50.028;9.258;2023-01-05T05:35:31;99644.88;;;8.41;100.00
13800;BME280;6971;50.028;9.258;2023-01-05T05:40:31;99644.75;;;8.44;100.00
13800;BME280;6971;50.028;9.258;2023-01-05T05:45:32;99651.88;;;8.42;100.00
13800;BME280;6971;50.028;9.258;2023-01-05T05:50:34;99649.41;;;8.37;100.00
13800;BME280;6971;50.028;9.258;2023-01-05T05:55:34;99653.22;;;8.30;100.00
13800;BME280;6971;50.028;9.258;2023-01-05T06:00:35;99649.13;;;8.22;100.00
13800;BME280;6971;50.028;9.258;2023-01-05T06:05:36;99659.63;;;8.22;100.00
13800;BME280;6971;50.028;9.258;2023-01-05T06:10:36;99660.06;;;8.12;100.00
13800;BME280;6971;50.028;9.258;2023-01-05T06:15:37;99660.25;;;8.07;100.00
13800;BME280;6971;50.028;9.258;2023-01-05T06:20:40;99661.16;;;8.06;100.00
13800;BME280;6971;50.028;9.258;2023-01-05T06:25:41;99663.00;;;8.04;100.00
13800;BME280;6971;50.028;9.258;2023-01-05T06:30:42;99673.38;;;8.07;100.00
13800;BME280;6971;50.028;9.258;2023-01-05T06:35:43;99680.75;;;8.19;100.00
13800;BME280;6971;50.028;9.258;2023-01-05T06:40:46;99682.88;;;8.09;100.00
13800;BME280;6971;50.028;9.258;2023-01-05T06:45:47;99680.09;;;8.14;100.00
13800;BME280;6971;50.028;9.258;2023-01-05T06:50:48;99680.03;;;8.16;100.00
13800;BME280;6971;50.028;9.258;2023-01-05T06:55:48;99684.75;;;8.30;100.00
13800;BME280;6971;50.028;9.258;2023-01-05T07:00:52;99678.13;;;8.19;100.00
13800;BME280;6971;50.028;9.258;2023-01-05T07:05:54;99693.47;;;8.08;100.00
13800;BME280;6971;50.028;9.258;2023-01-05T07:10:55;99697.44;;;8.18;100.00
13800;BME280;6971;50.028;9.258;2023-01-05T07:15:55;99697.69;;;8.12;100.00
13800;BME280;6971;50.028;9.258;2023-01-05T07:20:58;99705.00;;;8.04;100.00
13800;BME280;6971;50.028;9.258;2023-01-05T07:25:59;99709.91;;;8.13;100.00
13800;BME280;6971;50.028;9.258;2023-01-05T07:31:01;99722.88;;;8.16;100.00
13800;BME280;6971;50.028;9.258;2023-01-05T07:36:03;99727.78;;;8.26;100.00
13800;BME280;6971;50.028;9.258;2023-01-05T07:41:04;99750.50;;;8.27;100.00
13800;BME280;6971;50.028;9.258;2023-01-05T07:46:04;99760.94;;;8.28;100.00
13800;BME280;6971;50.028;9.258;2023-01-05T07:51:06;99774.06;;;8.28;100.00
13800;BME280;6971;50.028;9.258;2023-01-05T07:56:08;99775.72;;;8.31;100.00
13800;BME280;6971;50.028;9.258;2023-01-05T08:01:12;99763.25;;;8.36;100.00
13800;BME280;6971;50.028;9.258;2023-01-05T08:06:15;99771.19;;;8.34;100.00
13800;BME280;6971;50.028;9.258;2023-01-05T08:11:18;99777.88;;;8.43;100.00
13800;BME280;6971;50.028;9.258;2023-01-05T08:16:21;99785.88;;;8.40;100.00
13800;BME280;6971;50.028;9.258;2023-01-05T08:21:22;99785.88;;;8.40;100.00
13800;BME280;6971;50.028;9.258;2023-01-05T08:26:23;99805.03;;;8.42;100.00
13800;BME280;6971;50.028;9.258;2023-01-05T08:31:28;99818.97;;;8.44;100.00
13800;BME280;6971;50.028;9.258;2023-01-05T08:36:30;99831.19;;;8.45;100.00
13800;BME280;6971;50.028;9.258;2023-01-05T08:41:35;99833.91;;;8.42;100.00
13800;BME280;6971;50.028;9.258;2023-01-05T08:46:36;99818.13;;;8.44;100.00
13800;BME280;6971;50.028;9.258;2023-01-05T08:51:37;99823.69;;;8.58;100.00
13800;BME280;6971;50.028;9.258;2023-01-05T08:56:38;99833.66;;;8.50;100.00
13800;BME280;6971;50.028;9.258;2023-01-05T09:01:39;99832.72;;;8.53;100.00
13800;BME280;6971;50.028;9.258;2023-01-05T09:06:40;99834.28;;;8.57;100.00
13800;BME280;6971;50.028;9.258;2023-01-05T09:11:41;99832.44;;;8.59;100.00
13800;BME280;6971;50.028;9.258;2023-01-05T09:16:52;99847.28;;;8.60;100.00
13800;BME280;6971;50.028;9.258;2023-01-05T09:21:53;99847.75;;;8.71;100.00
13800;BME280;6971;50.028;9.258;2023-01-05T09:26:55;99856.66;;;8.67;100.00
13800;BME280;6971;50.028;9.258;2023-01-05T09:31:56;99858.50;;;8.65;100.00
13800;BME280;6971;50.028;9.258;2023-01-05T09:36:57;99861.13;;;8.65;100.00
13800;BME280;6971;50.028;9.258;2023-01-05T09:42:02;99890.97;;;8.62;100.00
13800;BME280;6971;50.028;9.258;2023-01-05T09:47:14;99874.50;;;8.59;100.00
13800;BME280;6971;50.028;9.258;2023-01-05T09:52:28;99881.91;;;8.47;100.00
13800;BME280;6971;50.028;9.258;2023-01-05T09:57:30;99876.09;;;8.63;100.00
13800;BME280;6971;50.028;9.258;2023-01-05T10:02:43;99878.81;;;8.60;100.00
13800;BME280;6971;50.028;9.258;2023-01-05T10:07:50;99894.31;;;8.68;100.00
13800;BME280;6971;50.028;9.258;2023-01-05T10:12:52;99890.09;;;8.64;100.00
13800;BME280;6971;50.028;9.258;2023-01-05T10:18:15;99890.34;;;8.56;100.00
13800;BME280;6971;50.028;9.258;2023-01-05T10:28:55;99894.84;;;8.54;100.00
13800;BME280;6971;50.028;9.258;2023-01-05T10:34:11;99901.56;;;8.61;100.00
13800;BME280;6971;50.028;9.258;2023-01-05T10:39:31;99901.22;;;8.70;100.00
13800;BME280;6971;50.028;9.258;2023-01-05T10:44:53;99898.59;;;8.70;100.00
13800;BME280;6971;50.028;9.258;2023-01-05T10:49:55;99907.03;;;8.79;100.00
13800;BME280;6971;50.028;9.258;2023-01-05T10:54:58;99908.91;;;8.75;100.00
13800;BME280;6971;50.028;9.258;2023-01-05T11:00:18;99912.66;;;8.92;100.00
13800;BME280;6971;50.028;9.258;2023-01-05T11:05:31;99915.22;;;8.93;100.00
13800;BME280;6971;50.028;9.258;2023-01-05T11:11:01;99906.84;;;9.06;100.00
13800;BME280;6971;50.028;9.258;2023-01-05T11:16:07;99910.09;;;9.12;100.00
13800;BME280;6971;50.028;9.258;2023-01-05T11:21:24;99912.03;;;9.30;100.00
13800;BME280;6971;50.028;9.258;2023-01-05T11:26:47;99911.69;;;9.17;100.00
13800;BME280;6971;50.028;9.258;2023-01-05T11:31:58;99924.25;;;9.31;100.00
13800;BME280;6971;50.028;9.258;2023-01-05T11:37:21;99922.16;;;9.39;100.00
13800;BME280;6971;50.028;9.258;2023-01-05T11:47:29;99920.28;;;9.63;100.00
13800;BME280;6971;50.028;9.258;2023-01-05T11:52:44;99935.47;;;9.57;100.00
13800;BME280;6971;50.028;9.258;2023-01-05T11:57:46;99927.97;;;9.47;100.00
13800;BME280;6971;50.028;9.258;2023-01-05T12:03:10;99915.59;;;9.49;100.00
13800;BME280;6971;50.028;9.258;2023-01-05T12:08:40;99921.41;;;9.58;100.00
13800;BME280;6971;50.028;9.258;2023-01-05T12:19:14;99911.59;;;9.82;100.00
13800;BME280;6971;50.028;9.258;2023-01-05T12:35:15;99908.25;;;9.78;100.00
13800;BME280;6971;50.028;9.258;2023-01-05T12:40:46;99909.56;;;9.89;100.00
13800;BME280;6971;50.028;9.258;2023-01-05T12:51:49;99909.13;;;10.19;100.00
13800;BME280;6971;50.028;9.258;2023-01-05T12:57:00;99926.38;;;10.26;97.80
13800;BME280;6971;50.028;9.258;2023-01-05T13:07:28;99920.59;;;10.18;98.52
13800;BME280;6971;50.028;9.258;2023-01-05T13:12:32;99917.16;;;9.97;97.47
13800;BME280;6971;50.028;9.258;2023-01-05T13:17:38;99918.97;;;9.95;98.33
13800;BME280;6971;50.028;9.258;2023-01-05T13:22:43;99932.06;;;9.96;96.37
13800;BME280;6971;50.028;9.258;2023-01-05T13:27:44;99925.94;;;10.16;96.23
13800;BME280;6971;50.028;9.258;2023-01-05T13:33:11;99926.25;;;10.29;93.70
13800;BME280;6971;50.028;9.258;2023-01-05T13:38:38;99930.53;;;10.32;94.29
13800;BME280;6971;50.028;9.258;2023-01-05T13:43:46;99924.75;;;10.24;91.98
13800;BME280;6971;50.028;9.258;2023-01-05T13:49:15;99922.72;;;10.10;90.26
13800;BME280;6971;50.028;9.258;2023-01-05T13:54:44;99930.16;;;10.00;90.96
13800;BME280;6971;50.028;9.258;2023-01-05T13:59:52;99933.25;;;9.89;92.83
13800;BME280;6971;50.028;9.258;2023-01-05T14:04:54;99939.44;;;9.88;93.39
13800;BME280;6971;50.028;9.258;2023-01-05T14:09:57;99941.91;;;9.92;92.50
13800;BME280;6971;50.028;9.258;2023-01-05T14:20:32;99951.09;;;10.03;92.54
13800;BME280;6971;50.028;9.258;2023-01-05T14:30:37;99953.06;;;9.98;93.44
13800;BME280;6971;50.028;9.258;2023-01-05T14:35:38;99959.41;;;9.93;94.26
13800;BME280;6971;50.028;9.258;2023-01-05T14:40:50;99957.22;;;9.83;97.02
13800;BME280;6971;50.028;9.258;2023-01-05T14:45:57;99970.31;;;9.84;96.73
13800;BME280;6971;50.028;9.258;2023-01-05T14:51:09;99974.88;;;9.81;98.70
13800;BME280;6971;50.028;9.258;2023-01-05T14:56:24;99980.56;;;9.90;99.18
13800;BME280;6971;50.028;9.258;2023-01-05T15:01:37;99985.41;;;9.81;99.50
13800;BME280;6971;50.028;9.258;2023-01-05T15:07:27;100003.06;;;9.77;99.92
13800;BME280;6971;50.028;9.258;2023-01-05T15:13:00;100015.94;;;9.62;99.70
13800;BME280;6971;50.028;9.258;2023-01-05T15:33:56;100034.34;;;9.40;100.00
13800;BME280;6971;50.028;9.258;2023-01-05T15:39:00;100044.16;;;9.36;100.00
13800;BME280;6971;50.028;9.258;2023-01-05T15:44:01;100049.84;;;9.25;100.00
13800;BME280;6971;50.028;9.258;2023-01-05T15:49:03;100038.88;;;9.14;100.00
13800;BME280;6971;50.028;9.258;2023-01-05T15:54:04;100045.50;;;9.00;100.00
13800;BME280;6971;50.028;9.258;2023-01-05T15:59:21;100054.66;;;8.90;100.00
13800;BME280;6971;50.028;9.258;2023-01-05T16:04:22;100054.84;;;8.85;100.00
13800;BME280;6971;50.028;9.258;2023-01-05T16:09:33;100047.91;;;8.83;100.00
13800;BME280;6971;50.028;9.258;2023-01-05T16:14:41;100049.59;;;8.85;100.00
13800;BME280;6971;50.028;9.258;2023-01-05T16:20:02;100043.56;;;8.82;100.00
13800;BME280;6971;50.028;9.258;2023-01-05T16:25:21;100046.47;;;8.74;100.00
13800;BME280;6971;50.028;9.258;2023-01-05T16:45:39;100042.25;;;8.70;100.00
13800;BME280;6971;50.028;9.258;2023-01-05T16:50:54;100047.44;;;8.71;100.00
13800;BME280;6971;50.028;9.258;2023-01-05T16:55:56;100039.81;;;8.65;100.00
13800;BME280;6971;50.028;9.258;2023-01-05T17:06:33;100044.97;;;8.41;100.00
13800;BME280;6971;50.028;9.258;2023-01-05T17:11:35;100042.81;;;8.27;100.00
13800;BME280;6971;50.028;9.258;2023-01-05T17:16:37;100042.63;;;8.08;100.00
13800;BME280;6971;50.028;9.258;2023-01-05T17:21:39;100046.78;;;8.14;100.00
13800;BME280;6971;50.028;9.258;2023-01-05T17:26:42;100042.81;;;8.02;100.00
13800;BME280;6971;50.028;9.258;2023-01-05T17:31:43;100042.16;;;7.95;100.00
13800;BME280;6971;50.028;9.258;2023-01-05T17:36:45;100038.91;;;7.87;100.00
13800;BME280;6971;50.028;9.258;2023-01-05T17:41:46;100038.81;;;7.90;100.00
13800;BME280;6971;50.028;9.258;2023-01-05T17:46:47;100041.72;;;7.82;100.00
13800;BME280;6971;50.028;9.258;2023-01-05T17:51:48;100037.59;;;7.73;100.00
13800;BME280;6971;50.028;9.258;2023-01-05T17:56:49;100039.28;;;7.76;100.00
13800;BME280;6971;50.028;9.258;2023-01-05T18:01:49;100042.38;;;7.62;100.00
13800;BME280;6971;50.028;9.258;2023-01-05T18:06:51;100053.53;;;7.68;100.00
13800;BME280;6971;50.028;9.258;2023-01-05T18:11:52;100055.53;;;7.60;100.00
13800;BME280;6971;50.028;9.258;2023-01-05T18:16:53;100054.41;;;7.67;100.00
13800;BME280;6971;50.028;9.258;2023-01-05T18:21:54;100053.81;;;7.59;100.00
13800;BME280;6971;50.028;9.258;2023-01-05T18:26:55;100050.28;;;7.60;100.00
13800;BME280;6971;50.028;9.258;2023-01-05T18:31:56;100041.78;;;7.52;100.00
13800;BME280;6971;50.028;9.258;2023-01-05T18:36:57;100041.69;;;7.55;100.00
13800;BME280;6971;50.028;9.258;2023-01-05T18:41:58;100044.88;;;7.65;100.00
13800;BME280;6971;50.028;9.258;2023-01-05T18:46:58;100042.25;;;7.65;100.00
13800;BME280;6971;50.028;9.258;2023-01-05T18:51:59;100040.63;;;7.61;100.00
13800;BME280;6971;50.028;9.258;2023-01-05T18:57:00;100048.66;;;7.56;100.00
13800;BME280;6971;50.028;9.258;2023-01-05T19:02:01;100052.31;;;7.50;100.00
13800;BME280;6971;50.028;9.258;2023-01-05T19:07:02;100054.03;;;7.51;100.00
13800;BME280;6971;50.028;9.258;2023-01-05T19:12:03;100048.94;;;7.47;100.00
13800;BME280;6971;50.028;9.258;2023-01-05T19:17:11;100047.81;;;7.54;100.00
13800;BME280;6971;50.028;9.258;2023-01-05T19:22:11;100051.75;;;7.40;100.00
13800;BME280;6971;50.028;9.258;2023-01-05T19:27:12;100050.75;;;7.44;100.00
13800;BME280;6971;50.028;9.258;2023-01-05T19:32:13;100044.19;;;7.29;100.00
13800;BME280;6971;50.028;9.258;2023-01-05T19:37:14;100035.41;;;7.32;100.00
13800;BME280;6971;50.028;9.258;2023-01-05T19:42:15;100042.69;;;7.22;100.00
13800;BME280;6971;50.028;9.258;2023-01-05T19:47:16;100037.13;;;7.33;100.00
13800;BME280;6971;50.028;9.258;2023-01-05T19:52:17;100033.78;;;7.28;100.00
13800;BME280;6971;50.028;9.258;2023-01-05T19:57:18;100030.88;;;7.37;100.00
13800;BME280;6971;50.028;9.258;2023-01-05T20:02:19;100035.00;;;7.44;100.00
13800;BME280;6971;50.028;9.258;2023-01-05T20:07:20;100028.00;;;7.45;100.00
13800;BME280;6971;50.028;9.258;2023-01-05T20:12:21;100029.97;;;7.38;100.00
13800;BME280;6971;50.028;9.258;2023-01-05T20:17:22;100028.88;;;7.46;100.00
13800;BME280;6971;50.028;9.258;2023-01-05T20:22:22;100028.97;;;7.42;100.00
13800;BME280;6971;50.028;9.258;2023-01-05T20:27:23;100029.88;;;7.41;100.00
13800;BME280;6971;50.028;9.258;2023-01-05T20:32:25;100036.34;;;7.29;100.00
13800;BME280;6971;50.028;9.258;2023-01-05T20:37:28;100034.50;;;7.33;100.00
13800;BME280;6971;50.028;9.258;2023-01-05T20:42:29;100039.78;;;7.31;100.00
13800;BME280;6971;50.028;9.258;2023-01-05T20:47:31;100039.81;;;7.30;100.00
13800;BME280;6971;50.028;9.258;2023-01-05T20:52:31;100043.03;;;7.40;100.00
13800;BME280;6971;50.028;9.258;2023-01-05T20:57:33;100042.03;;;7.44;100.00
13800;BME280;6971;50.028;9.258;2023-01-05T21:02:33;100043.25;;;7.61;100.00
13800;BME280;6971;50.028;9.258;2023-01-05T21:07:34;100036.94;;;7.66;100.00
13800;BME280;6971;50.028;9.258;2023-01-05T21:12:37;100030.44;;;7.51;100.00
13800;BME280;6971;50.028;9.258;2023-01-05T21:17:38;100038.50;;;7.45;100.00
13800;BME280;6971;50.028;9.258;2023-01-05T21:22:39;100038.13;;;7.57;100.00
13800;BME280;6971;50.028;9.258;2023-01-05T21:27:40;100041.53;;;7.60;100.00
13800;BME280;6971;50.028;9.258;2023-01-05T21:32:43;100032.22;;;7.51;100.00
13800;BME280;6971;50.028;9.258;2023-01-05T21:37:43;100032.88;;;7.57;100.00
13800;BME280;6971;50.028;9.258;2023-01-05T21:42:44;100036.44;;;7.55;100.00
13800;BME280;6971;50.028;9.258;2023-01-05T21:47:53;100029.38;;;7.57;100.00
13800;BME280;6971;50.028;9.258;2023-01-05T21:52:56;100031.09;;;7.58;100.00
13800;BME280;6971;50.028;9.258;2023-01-05T21:58:16;100024.28;;;7.52;100.00
13800;BME280;6971;50.028;9.258;2023-01-05T22:03:17;100019.53;;;7.64;100.00
13800;BME280;6971;50.028;9.258;2023-01-05T22:08:18;100012.19;;;7.48;100.00
13800;BME280;6971;50.028;9.258;2023-01-05T22:13:19;100015.50;;;7.53;100.00
13800;BME280;6971;50.028;9.258;2023-01-05T22:18:21;100009.34;;;7.54;100.00
13800;BME280;6971;50.028;9.258;2023-01-05T22:23:23;100006.81;;;7.51;100.00
13800;BME280;6971;50.028;9.258;2023-01-05T22:28:24;99998.19;;;7.48;100.00
13800;BME280;6971;50.028;9.258;2023-01-05T22:33:24;99995.97;;;7.62;100.00
13800;BME280;6971;50.028;9.258;2023-01-05T22:38:34;100005.94;;;7.52;100.00
13800;BME280;6971;50.028;9.258;2023-01-05T22:43:36;100007.59;;;7.55;100.00
13800;BME280;6971;50.028;9.258;2023-01-05T22:48:40;100008.31;;;7.60;100.00
13800;BME280;6971;50.028;9.258;2023-01-05T22:53:42;99990.91;;;7.57;100.00
13800;BME280;6971;50.028;9.258;2023-01-05T22:58:43;99998.47;;;7.67;100.00
13800;BME280;6971;50.028;9.258;2023-01-05T23:03:44;99996.91;;;7.61;100.00
13800;BME280;6971;50.028;9.258;2023-01-05T23:08:46;99989.84;;;7.63;100.00
13800;BME280;6971;50.028;9.258;2023-01-05T23:13:48;99985.34;;;7.67;100.00
13800;BME280;6971;50.028;9.258;2023-01-05T23:18:50;99989.84;;;7.63;100.00
13800;BME280;6971;50.028;9.258;2023-01-05T23:23:53;99978.31;;;7.67;100.00
13800;BME280;6971;50.028;9.258;2023-01-05T23:28:54;99975.13;;;7.59;100.00
13800;BME280;6971;50.028;9.258;2023-01-05T23:33:55;99970.44;;;7.67;100.00
13800;BME280;6971;50.028;9.258;2023-01-05T23:38:56;99956.53;;;7.65;100.00
13800;BME280;6971;50.028;9.258;2023-01-05T23:43:57;99952.22;;;7.64;100.00
13800;BME280;6971;50.028;9.258;2023-01-05T23:48:58;99941.00;;;7.59;100.00
13800;BME280;6971;50.028;9.258;2023-01-05T23:54:04;99939.19;;;7.61;100.00
13800;BME280;6971;50.028;9.258;2023-01-05T23:59:06;99931.34;;;7.60;100.00
